ADDS METAR Data INFO
IDs: Format: Raw Decoded Include TAF

Data at: 0751 UTC 17 Oct 2017

KVTP 170748Z AUTO 10SM CLR 04/M12 A3062 RMK AO2
KVTP 170724Z AUTO 10SM CLR 05/M12 A3063 RMK AO2
KVTP 170706Z AUTO 10SM CLR 05/M12 A3063 RMK AO2
KVTP 170648Z AUTO 10SM CLR 05/M12 A3063 RMK AO2
KVTP 170624Z AUTO 10SM CLR 06/M13 A3063 RMK AO2
KVTP 170606Z AUTO 21023G35KT 10SM CLR 07/M12 A3063 RMK AO2
KVTP 170548Z AUTO 21024G34KT 10SM CLR 07/M12 A3063 RMK AO2
KVTP 170524Z AUTO 21024G32KT 10SM CLR 07/M12 A3063 RMK AO2
KVTP 170506Z AUTO 21025G35KT 10SM CLR 07/M13 A3064 RMK AO2
KVTP 170448Z AUTO 21024G33KT 10SM CLR 07/M13 A3064 RMK AO2
KVTP 170424Z AUTO 20025G35KT 10SM CLR 07/M13 A3065 RMK AO2
KVTP 170406Z AUTO 19023G36KT 10SM CLR 07/M13 A3064 RMK AO2
KVTP 170348Z AUTO 20023G33KT 10SM CLR 07/M13 A3064 RMK AO2
KVTP 170324Z AUTO 20022G30KT 10SM CLR 08/M13 A3064 RMK AO2
KVTP 170306Z AUTO 19022G32KT 10SM CLR 08/M13 A3064 RMK AO2
KVTP 170247Z AUTO 19019G27KT 10SM CLR 08/M13 A3064 RMK AO2
KVTP 170223Z AUTO 20015G23KT 10SM CLR 08/M13 A3064 RMK AO2
KVTP 170205Z AUTO 20014G21KT 10SM CLR 08/M13 A3064 RMK AO2
KVTP 170148Z AUTO 20012G24KT 10SM CLR 09/M13 A3065 RMK AO2
KVTP 170124Z AUTO 20011G19KT 10SM CLR 09/M12 A3064 RMK AO2
KVTP 170106Z AUTO 20011G17KT 10SM CLR 08/M12 A3064 RMK AO2
KVTP 170043Z AUTO 20011G17KT 10SM CLR 10/M12 A3064 RMK AO2
KVTP 170025Z AUTO 21013G22KT 10SM CLR 11/M12 A3063 RMK AO2
KVTP 162354Z AUTO 20016G26KT 10SM CLR 12/M12 A3063 RMK AO2
KVTP 162348Z AUTO 20015G28KT 10SM CLR 12/M12 A3063 RMK AO2
KVTP 162324Z AUTO 20014KT 130V200 10SM CLR 12/M13 A3064 RMK AO2
KVTP 162306Z AUTO 19014KT 120V220 10SM CLR 13/M14 A3064 RMK AO2
KVTP 162244Z AUTO 10SM CLR 14/M15 A3063 RMK AO2
KVTP 162226Z AUTO 20015KT 10SM CLR 15/M15 A3064 RMK AO2
KVTP 162208Z AUTO 10SM CLR 15/M15 A3065 RMK AO2
KVTP 162147Z AUTO 10SM CLR 15/M14 A3064 RMK AO2
KVTP 162123Z AUTO 19014G24KT 150V210 10SM CLR 15/M13 A3065 RMK AO2
KVTP 162106Z AUTO 10SM CLR 15/M13 A3065 RMK AO2
KVTP 162047Z AUTO 10SM CLR 15/M13 A3066 RMK AO2
KVTP 162023Z AUTO 20014G24KT 10SM CLR 15/M12 A3066 RMK AO2
KVTP 162006Z AUTO 20015G24KT 10SM CLR 15/M11 A3067 RMK AO2
KVTP 161947Z AUTO 20015KT 10SM CLR 15/M11 A3068 RMK AO2
KVTP 161924Z AUTO 20015G25KT 10SM CLR 15/M11 A3068 RMK AO2
KVTP 161906Z AUTO 19016KT 10SM CLR 15/M10 A3069 RMK AO2
KVTP 161848Z AUTO 22010G23KT 10SM CLR 13/M11 A3070 RMK AO2
KVTP 161824Z AUTO 10SM CLR 12/M10 A3071 RMK AO2
KVTP 161806Z AUTO 10SM CLR 12/M09 A3071 RMK AO2
KVTP 161748Z AUTO 22016G31KT 10SM CLR 11/M09 A3071 RMK AO2
KVTP 161724Z AUTO 20023G33KT 10SM CLR 10/M12 A3071 RMK AO2
KVTP 161706Z AUTO 21025G32KT 10SM CLR 09/M12 A3072 RMK AO2
KVTP 161648Z AUTO 21022G33KT 10SM CLR 08/M11 A3072 RMK AO2
KVTP 161624Z AUTO 20024G35KT 10SM CLR 07/M12 A3071 RMK AO2
KVTP 161606Z AUTO 21025G33KT 10SM CLR 06/M12 A3070 RMK AO2
KVTP 161548Z AUTO 21026G33KT 10SM CLR 05/M10 A3070 RMK AO2
KVTP 161524Z AUTO 21025G34KT 10SM CLR 05/M12 A3069 RMK AO2
KVTP 161506Z AUTO 10SM CLR 04/M11 A3069 RMK AO2
KVTP 161448Z AUTO 21025KT 10SM CLR 03/M11 A3069 RMK AO2
KVTP 161424Z AUTO 21024KT 10SM CLR 02/M11 A3068 RMK AO2
KVTP 161406Z AUTO 21027G34KT 10SM CLR 01/M12 A3068 RMK AO2
KVTP 161348Z AUTO 10SM CLR 02/M12 A3068 RMK AO2
KVTP 161324Z AUTO 21027KT 10SM CLR 01/M12 A3068 RMK AO2
KVTP 161306Z AUTO 21027KT 10SM CLR 01/M12 A3068 RMK AO2
KVTP 161248Z AUTO 10SM CLR 01/M12 A3068 RMK AO2
KVTP 161224Z AUTO 10SM CLR 01/M11 A3068 RMK AO2
KVTP 161206Z AUTO 10SM CLR 01/M11 A3068 RMK AO2
KVTP 161147Z AUTO 22024KT 10SM CLR 01/M11 A3067 RMK AO2
KVTP 161123Z AUTO 10SM CLR 02/M12 A3067 RMK AO2
KVTP 161105Z AUTO 21025KT 10SM CLR 02/M11 A3067 RMK AO2
KVTP 161041Z AUTO 22024KT 10SM CLR 02/M11 A3067 RMK AO2
KVTP 161024Z AUTO 10SM CLR 02/M11 A3068 RMK AO2
KVTP 161006Z AUTO 10SM CLR 02/M11 A3068 RMK AO2
KVTP 160948Z AUTO 10SM CLR 02/M11 A3069 RMK AO2
KVTP 160924Z AUTO 10SM CLR 02/M11 A3070 RMK AO2
KVTP 160906Z AUTO 10SM CLR 02/M10 A3070 RMK AO2
KVTP 160848Z AUTO 10SM CLR 02/M10 A3071 RMK AO2
KVTP 160824Z AUTO 10SM CLR 02/M11 A3071 RMK AO2
KVTP 160806Z AUTO 10SM CLR 03/M11 A3072 RMK AO2
KVTP 160747Z AUTO 10SM CLR 02/M11 A3072 RMK AO2
KVTP 160724Z AUTO 10SM CLR 02/M12 A3072 RMK AO2
KVTP 160706Z AUTO 10SM CLR 03/M12 A3072 RMK AO2
KVTP 160648Z AUTO 10SM CLR 03/M13 A3073 RMK AO2
KVTP 160624Z AUTO 21022G27KT 10SM CLR 04/M13 A3073 RMK AO2
KVTP 160606Z AUTO 21021KT 10SM CLR 04/M15 A3073 RMK AO2
KVTP 160548Z AUTO 20022G29KT 10SM CLR 05/M15 A3073 RMK AO2
KVTP 160524Z AUTO 21019G23KT 10SM CLR 05/M15 A3073 RMK AO2
KVTP 160506Z AUTO 21016KT 10SM CLR 04/M17 A3074 RMK AO2
KVTP 160448Z AUTO 21015G20KT 10SM CLR 05/M17 A3074 RMK AO2
KVTP 160424Z AUTO 21014G23KT 10SM CLR 06/M17 A3074 RMK AO2
KVTP 160406Z AUTO 21013G21KT 10SM CLR 06/M18 A3074 RMK AO2
KVTP 160348Z AUTO 21014G24KT 10SM CLR 06/M18 A3074 RMK AO2
KVTP 160324Z AUTO 21013G22KT 10SM CLR 06/M20 A3073 RMK AO2
KVTP 160306Z AUTO 21015G21KT 10SM CLR 07/M20 A3073 RMK AO2
KVTP 160248Z AUTO 21014G23KT 10SM CLR 07/M20 A3073 RMK AO2
KVTP 160224Z AUTO 21013G21KT 10SM CLR 07/M20 A3073 RMK AO2
KVTP 160206Z AUTO 20015G21KT 10SM CLR 07/M20 A3073 RMK AO2
KVTP 160148Z AUTO 20010G20KT 10SM CLR 07/M20 A3073 RMK AO2
KVTP 160124Z AUTO 19013G19KT 10SM CLR 07/M18 A3072 RMK AO2
KVTP 160106Z AUTO 19008KT 10SM CLR 07/M19 A3072 RMK AO2
KVTP 160043Z AUTO 16004KT 10SM CLR 07/M18 A3072 RMK AO2
KVTP 160025Z AUTO 19009KT 10SM CLR 08/M18 A3072 RMK AO2
KVTP 152354Z AUTO 21005KT 10SM CLR 09/M18 A3072 RMK AO2
KVTP 152348Z AUTO 20008KT 10SM CLR 10/M17 A3072 RMK AO2
KVTP 152324Z AUTO 21005KT 10SM CLR 11/M17 A3072 RMK AO2
KVTP 152306Z AUTO 19007G16KT 150V210 10SM CLR 12/M16 A3072 RMK AO2
KVTP 152248Z AUTO 19009KT 10SM CLR 12/M16 A3072 RMK AO2
KVTP 152224Z AUTO 20006G14KT 10SM CLR 12/M16 A3072 RMK AO2
KVTP 152206Z AUTO 19006G19KT 160V240 10SM CLR 13/M15 A3072 RMK AO2
KVTP 152147Z AUTO 18011G24KT 10SM CLR 12/M15 A3072 RMK AO2
KVTP 152123Z AUTO 19009G22KT 140V220 10SM CLR 12/M14 A3072 RMK AO2
KVTP 152105Z AUTO 20008G18KT 10SM CLR 13/M15 A3072 RMK AO2
KVTP 152047Z AUTO 20010G19KT 10SM CLR 13/M15 A3072 RMK AO2
KVTP 152024Z AUTO 21011G22KT 10SM CLR 12/M15 A3072 RMK AO2
KVTP 152006Z AUTO 21010G20KT 10SM CLR 12/M16 A3072 RMK AO2